Time;durP1;ratioP1;P1;durP2;ratioP2;P2;SDS_P1;SDS_P2;PMS_P1;PMS_P2;Temp;Humidity;BMP_temperature;BMP_pressure;BME280_temperature;BME280_humidity;BME280_pressure;Samples;Min_cycle;Max_cycle;Signal;HPM_P1;HPM_P2
2022/08/20 00:00:28;;;;;;;24.80;15.30;;;22.90;99.90;;;;;;5049358;28;20032;-68
2022/08/20 00:02:56;;;;;;;22.65;15.60;;;22.90;99.90;;;;;;5043785;28;20029;-68
2022/08/20 00:05:27;;;;;;;24.85;16.38;;;22.90;99.90;;;;;;5048730;28;20041;-68
2022/08/20 00:07:53;;;;;;;23.95;16.33;;;22.90;99.90;;;;;;5044831;28;20523;-68
2022/08/20 00:10:20;;;;;;;29.48;16.02;;;22.90;99.90;;;;;;5046933;28;20032;-69
2022/08/20 00:12:48;;;;;;;24.20;16.33;;;22.90;99.90;;;;;;5044474;28;20029;-69
2022/08/20 00:15:15;;;;;;;23.40;15.98;;;22.90;99.90;;;;;;5045461;28;20483;-68
2022/08/20 00:17:41;;;;;;;30.25;18.58;;;22.90;99.90;;;;;;5047776;28;20432;-69
2022/08/20 00:20:12;;;;;;;25.63;18.30;;;22.90;99.90;;;;;;5053435;28;20104;-68
2022/08/20 00:22:37;;;;;;;25.52;17.33;;;22.90;99.90;;;;;;5046892;28;20034;-68
2022/08/20 00:25:05;;;;;;;24.85;16.90;;;22.90;99.90;;;;;;5042816;28;20032;-71
2022/08/20 00:27:31;;;;;;;28.90;18.08;;;22.80;99.90;;;;;;5029744;28;20032;-70
2022/08/20 00:29:56;;;;;;;28.02;19.52;;;22.80;99.90;;;;;;5045294;28;20022;-69
2022/08/20 00:32:22;;;;;;;27.95;18.95;;;22.80;99.90;;;;;;5048710;28;20462;-68
2022/08/20 00:34:48;;;;;;;25.85;17.95;;;22.80;99.90;;;;;;5051182;28;20090;-68
2022/08/20 00:37:14;;;;;;;26.70;19.42;;;22.80;99.90;;;;;;5025112;28;20072;-69
2022/08/20 00:39:40;;;;;;;23.70;17.08;;;22.80;99.90;;;;;;5047582;28;20461;-68
2022/08/20 00:42:05;;;;;;;24.25;18.27;;;22.80;99.90;;;;;;5041038;28;20923;-69
2022/08/20 00:44:32;;;;;;;28.15;19.38;;;22.80;99.90;;;;;;5042598;28;20486;-69
2022/08/20 00:46:58;;;;;;;34.75;19.77;;;22.80;99.90;;;;;;5044087;28;20025;-68
2022/08/20 00:49:29;;;;;;;26.10;18.70;;;22.80;99.90;;;;;;5049846;28;20017;-68
2022/08/20 00:52:04;;;;;;;26.60;19.75;;;22.80;99.90;;;;;;5046014;28;20037;-68
2022/08/20 00:54:37;;;;;;;29.80;20.02;;;22.80;99.90;;;;;;5039808;28;20025;-67
2022/08/20 00:57:09;;;;;;;29.60;19.20;;;22.80;99.90;;;;;;5045512;28;20023;-67
2022/08/20 00:59:38;;;;;;;24.38;18.70;;;22.80;99.90;;;;;;5051408;28;20453;-68
2022/08/20 01:02:08;;;;;;;27.17;19.23;;;22.80;99.90;;;;;;5044262;28;20030;-66
2022/08/20 01:04:35;;;;;;;27.27;19.27;;;22.80;99.90;;;;;;5041184;28;20025;-67
2022/08/20 01:07:04;;;;;;;23.95;19.58;;;22.80;99.90;;;;;;5048764;28;20067;-66
2022/08/20 01:09:30;;;;;;;28.77;19.65;;;22.80;99.90;;;;;;5039887;28;20076;-66
2022/08/20 01:11:56;;;;;;;27.15;19.42;;;22.80;99.90;;;;;;5041191;28;20056;-67
2022/08/20 01:16:53;;;;;;;26.90;21.00;;;22.80;99.90;;;;;;5045587;28;20033;-67
2022/08/20 01:19:28;;;;;;;24.95;20.35;;;22.70;99.90;;;;;;5031658;28;20377;-67
2022/08/20 01:21:54;;;;;;;25.52;20.67;;;22.50;99.90;;;;;;5046327;28;20037;-67
2022/08/20 01:24:29;;;;;;;27.70;22.83;;;22.40;99.90;;;;;;5043174;28;20021;-67
2022/08/20 01:26:55;;;;;;;30.08;23.48;;;22.40;99.90;;;;;;5044669;28;20033;-69
2022/08/20 01:29:33;;;;;;;27.42;23.70;;;22.50;99.90;;;;;;5048003;28;20070;-67
2022/08/20 01:32:00;;;;;;;29.10;23.58;;;22.30;99.90;;;;;;5010100;28;20092;-74
2022/08/20 01:34:27;;;;;;;31.52;24.00;;;22.20;99.90;;;;;;5022566;28;20018;-68
2022/08/20 01:36:56;;;;;;;31.15;25.95;;;22.20;99.90;;;;;;5025673;28;20026;-68
2022/08/20 01:39:30;;;;;;;32.45;26.27;;;22.20;99.90;;;;;;5031386;28;20518;-68
2022/08/20 01:42:16;;;;;;;34.20;25.95;;;22.10;99.90;;;;;;5022206;28;20041;-68
2022/08/20 01:44:43;;;;;;;32.63;27.52;;;22.10;99.90;;;;;;5025941;28;20505;-68
2022/08/20 01:47:12;;;;;;;31.20;26.00;;;22.20;99.90;;;;;;5022615;28;20037;-70
2022/08/20 01:49:45;;;;;;;33.42;25.98;;;22.20;99.90;;;;;;5028059;28;20022;-68
2022/08/20 01:52:19;;;;;;;36.63;27.83;;;22.20;99.90;;;;;;5025771;28;20030;-68
2022/08/20 01:54:45;;;;;;;31.73;26.40;;;22.10;99.90;;;;;;5016228;28;20026;-68
2022/08/20 01:57:15;;;;;;;30.92;25.90;;;22.10;99.90;;;;;;5015906;28;20108;-68
2022/08/20 01:59:42;;;;;;;34.67;26.88;;;22.00;99.90;;;;;;5021268;28;20354;-69
2022/08/20 02:02:10;;;;;;;34.85;29.08;;;22.00;99.90;;;;;;5004465;28;20079;-68
2022/08/20 02:04:36;;;;;;;34.50;26.08;;;22.10;99.90;;;;;;5022558;28;20040;-68
2022/08/20 02:07:04;;;;;;;34.30;27.38;;;22.10;99.90;;;;;;5027524;28;20029;-69
2022/08/20 02:09:33;;;;;;;30.98;26.52;;;22.10;99.90;;;;;;5022583;28;20036;-68
2022/08/20 02:11:59;;;;;;;35.10;29.50;;;22.10;99.90;;;;;;5024693;28;20030;-69
2022/08/20 02:14:26;;;;;;;35.88;29.02;;;22.10;99.90;;;;;;5030760;28;20026;-69
2022/08/20 02:16:52;;;;;;;36.05;28.13;;;22.10;99.90;;;;;;5020623;28;20088;-69
2022/08/20 02:19:33;;;;;;;41.33;31.17;;;22.10;99.90;;;;;;5005812;28;20045;-68
2022/08/20 02:22:03;;;;;;;38.05;29.13;;;22.00;99.90;;;;;;5018974;28;20477;-68
2022/08/20 02:24:28;;;;;;;36.40;30.63;;;22.00;99.90;;;;;;5024831;28;20033;-68
2022/08/20 02:26:54;;;;;;;36.67;29.52;;;22.00;99.90;;;;;;5029806;28;20088;-68
2022/08/20 02:29:22;;;;;;;36.72;26.90;;;21.90;99.90;;;;;;5024123;28;20026;-68
2022/08/20 02:31:48;;;;;;;34.10;27.33;;;21.70;99.90;;;;;;5044283;28;20079;-68
2022/08/20 02:34:13;;;;;;;32.03;23.85;;;21.70;99.90;;;;;;5044820;28;20033;-68
2022/08/20 02:36:42;;;;;;;37.67;26.17;;;21.60;99.90;;;;;;5044652;28;20370;-68
2022/08/20 02:39:10;;;;;;;37.75;26.38;;;21.60;99.90;;;;;;5046499;28;20029;-67
2022/08/20 02:41:37;;;;;;;34.58;26.98;;;21.60;99.90;;;;;;5049165;28;20025;-68
2022/08/20 02:44:04;;;;;;;36.22;26.35;;;21.70;99.90;;;;;;5047991;28;20085;-68
2022/08/20 02:46:30;;;;;;;37.00;26.77;;;21.70;99.90;;;;;;5037984;28;20103;-68
2022/08/20 02:48:56;;;;;;;32.20;26.20;;;21.80;99.90;;;;;;5040955;28;21822;-68
2022/08/20 02:51:22;;;;;;;35.63;26.25;;;21.90;99.90;;;;;;5042506;28;20454;-68
2022/08/20 02:53:48;;;;;;;36.58;27.00;;;21.90;99.90;;;;;;5043453;28;20120;-68
2022/08/20 02:56:14;;;;;;;33.45;25.52;;;21.90;99.90;;;;;;5043893;28;20036;-68
2022/08/20 02:58:41;;;;;;;35.15;25.70;;;21.90;99.90;;;;;;5024514;28;20021;-68
2022/08/20 03:01:11;;;;;;;38.38;27.83;;;21.90;99.90;;;;;;5033161;28;20593;-68
2022/08/20 03:03:37;;;;;;;31.15;23.67;;;21.90;99.90;;;;;;5040693;28;20033;-68
2022/08/20 03:06:03;;;;;;;35.60;24.60;;;21.90;99.90;;;;;;5042537;28;20025;-68
2022/08/20 03:08:29;;;;;;;31.63;22.50;;;21.80;99.90;;;;;;5045100;28;20029;-68
2022/08/20 03:10:55;;;;;;;33.67;23.27;;;21.80;99.90;;;;;;5040445;28;20025;-68
2022/08/20 03:13:23;;;;;;;29.63;21.63;;;21.90;99.90;;;;;;5043170;28;20476;-68
2022/08/20 03:15:55;;;;;;;30.98;21.60;;;21.90;99.90;;;;;;5024312;28;20175;-68
2022/08/20 03:18:22;;;;;;;32.20;22.55;;;21.90;99.90;;;;;;5030162;28;20111;-68
2022/08/20 03:20:48;;;;;;;33.60;22.98;;;21.90;99.90;;;;;;5032919;28;20031;-68
2022/08/20 03:23:16;;;;;;;32.88;22.85;;;21.90;99.90;;;;;;5036483;28;20029;-68
2022/08/20 03:25:42;;;;;;;33.28;22.42;;;21.90;99.90;;;;;;5040434;28;20401;-68
2022/08/20 03:28:09;;;;;;;34.30;23.15;;;22.00;99.90;;;;;;5045241;28;20041;-68
2022/08/20 03:30:35;;;;;;;33.35;23.85;;;21.90;99.90;;;;;;5053799;28;20377;-68
2022/08/20 03:33:01;;;;;;;39.50;26.52;;;21.90;99.90;;;;;;5043908;28;20061;-68
2022/08/20 03:35:30;;;;;;;40.20;24.58;;;22.00;99.90;;;;;;5051406;28;20527;-68
2022/08/20 03:37:56;;;;;;;40.20;25.25;;;21.90;99.90;;;;;;5039445;28;20547;-68
2022/08/20 03:40:31;;;;;;;38.08;24.58;;;21.90;99.90;;;;;;5045603;28;20049;-68
2022/08/20 03:42:58;;;;;;;34.53;23.65;;;21.90;99.90;;;;;;5047313;28;20485;-68
2022/08/20 03:45:25;;;;;;;41.28;26.65;;;21.90;99.90;;;;;;5033424;28;20484;-68
2022/08/20 03:47:52;;;;;;;42.17;27.73;;;21.90;99.90;;;;;;5049849;28;20021;-68
2022/08/20 03:50:24;;;;;;;43.95;26.63;;;21.90;99.90;;;;;;5041819;28;20021;-68
2022/08/20 03:52:51;;;;;;;37.88;26.52;;;21.90;99.90;;;;;;5046659;28;20381;-68
2022/08/20 03:55:16;;;;;;;44.30;30.63;;;21.90;99.90;;;;;;5047395;28;20021;-68
2022/08/20 03:57:48;;;;;;;49.08;31.63;;;21.80;99.90;;;;;;5045449;28;20021;-68
2022/08/20 04:00:18;;;;;;;44.72;34.33;;;21.80;99.90;;;;;;5043698;28;20021;-68
2022/08/20 04:02:43;;;;;;;55.63;33.85;;;21.80;99.90;;;;;;5045836;28;20091;-69
2022/08/20 04:05:09;;;;;;;54.25;36.55;;;21.60;99.90;;;;;;5046915;28;20033;-68
2022/08/20 04:07:36;;;;;;;51.95;35.85;;;21.70;99.90;;;;;;5044416;28;20369;-68
2022/08/20 04:10:07;;;;;;;58.42;37.55;;;21.70;99.90;;;;;;5045902;28;20047;-68
2022/08/20 04:12:32;;;;;;;69.32;40.92;;;21.70;99.90;;;;;;5031309;28;20381;-68
2022/08/20 04:14:58;;;;;;;60.78;37.65;;;21.60;99.90;;;;;;5044103;28;20104;-68
2022/08/20 04:17:23;;;;;;;53.08;33.33;;;21.50;99.90;;;;;;5046530;28;20037;-68
2022/08/20 04:19:49;;;;;;;48.70;30.05;;;21.40;99.90;;;;;;5045007;28;20079;-68
2022/08/20 04:22:15;;;;;;;39.67;24.33;;;21.50;99.90;;;;;;5047380;28;20035;-68
2022/08/20 04:24:41;;;;;;;30.63;20.52;;;21.50;99.90;;;;;;5045121;28;20469;-69
2022/08/20 04:27:08;;;;;;;35.55;20.48;;;21.40;99.90;;;;;;5046197;28;20025;-68
2022/08/20 04:29:35;;;;;;;24.40;17.58;;;21.40;99.90;;;;;;5046004;28;20375;-69
2022/08/20 04:32:03;;;;;;;32.42;19.02;;;21.20;99.90;;;;;;5041995;28;20033;-68
2022/08/20 04:34:29;;;;;;;36.88;19.40;;;21.30;99.90;;;;;;5046149;28;20040;-68
2022/08/20 04:36:55;;;;;;;25.67;17.35;;;21.30;99.90;;;;;;5043696;28;20543;-69
2022/08/20 04:39:20;;;;;;;34.08;16.98;;;21.30;99.90;;;;;;5044553;28;20029;-68
2022/08/20 04:41:46;;;;;;;29.40;16.95;;;21.30;99.90;;;;;;5045914;28;20026;-69
2022/08/20 04:44:12;;;;;;;35.45;19.20;;;21.30;99.90;;;;;;5044487;28;20041;-68
2022/08/20 04:46:39;;;;;;;30.48;17.35;;;21.40;99.90;;;;;;5047521;28;20100;-69
2022/08/20 04:49:05;;;;;;;23.60;16.27;;;21.40;99.90;;;;;;5045942;28;20108;-68
2022/08/20 04:51:32;;;;;;;28.70;17.20;;;21.40;99.90;;;;;;5045256;28;20024;-69
2022/08/20 04:53:59;;;;;;;30.52;17.17;;;21.40;99.90;;;;;;5046747;28;20043;-69
2022/08/20 04:56:30;;;;;;;27.30;16.27;;;21.30;99.90;;;;;;5044591;28;20027;-68
2022/08/20 04:58:59;;;;;;;29.45;17.42;;;21.20;99.90;;;;;;5047204;28;20021;-68
2022/08/20 05:01:25;;;;;;;34.50;17.98;;;21.20;99.90;;;;;;5041377;28;20030;-69
2022/08/20 05:03:55;;;;;;;29.98;18.63;;;21.20;99.90;;;;;;5044229;28;20069;-68
2022/08/20 05:06:24;;;;;;;35.53;18.35;;;21.20;99.90;;;;;;5051300;28;20021;-68
2022/08/20 05:08:50;;;;;;;37.40;18.83;;;21.20;99.90;;;;;;5047952;28;20060;-68
2022/08/20 05:11:17;;;;;;;31.02;20.08;;;21.20;99.90;;;;;;5047305;28;20018;-68
2022/08/20 05:13:42;;;;;;;32.53;19.60;;;21.20;99.90;;;;;;5044980;28;20025;-68
2022/08/20 05:16:08;;;;;;;36.85;19.90;;;21.20;99.90;;;;;;5044682;28;20132;-68
2022/08/20 05:18:35;;;;;;;37.70;20.88;;;21.30;99.90;;;;;;5048599;28;20495;-69
2022/08/20 05:21:05;;;;;;;39.25;20.65;;;21.20;99.90;;;;;;5044201;28;20051;-69
2022/08/20 05:23:33;;;;;;;36.25;20.05;;;21.20;99.90;;;;;;5044402;28;20040;-69
2022/08/20 05:25:59;;;;;;;42.65;22.00;;;21.20;99.90;;;;;;5039970;28;20108;-68
2022/08/20 05:28:31;;;;;;;43.90;21.23;;;21.20;99.90;;;;;;5045040;28;20033;-68
2022/08/20 05:31:00;;;;;;;47.90;21.73;;;21.20;99.90;;;;;;5052880;28;20032;-70
2022/08/20 05:33:28;;;;;;;38.08;20.27;;;21.20;99.90;;;;;;5046133;28;20051;-68
2022/08/20 05:35:56;;;;;;;35.53;20.15;;;21.10;99.90;;;;;;5041087;28;20068;-71
2022/08/20 05:38:25;;;;;;;39.95;21.88;;;21.10;99.90;;;;;;5037997;28;20029;-69
2022/08/20 05:40:51;;;;;;;39.25;22.23;;;21.10;99.90;;;;;;5040639;28;20456;-68
2022/08/20 05:43:17;;;;;;;43.08;24.05;;;21.10;99.90;;;;;;5049183;28;20119;-69
2022/08/20 05:45:45;;;;;;;47.08;23.60;;;21.10;99.90;;;;;;5042356;28;20075;-68
2022/08/20 05:48:13;;;;;;;49.22;23.65;;;21.10;99.90;;;;;;5044734;28;20104;-68
2022/08/20 05:50:41;;;;;;;55.85;25.73;;;21.00;99.90;;;;;;5039688;28;20013;-69
2022/08/20 05:53:07;;;;;;;59.40;26.73;;;21.00;99.90;;;;;;5044483;28;20032;-68
2022/08/20 05:55:36;;;;;;;62.88;25.88;;;21.00;99.90;;;;;;5045908;28;20540;-69
2022/08/20 05:58:06;;;;;;;60.67;27.88;;;21.00;99.90;;;;;;5044516;28;20565;-69
2022/08/20 06:00:32;;;;;;;53.03;24.63;;;21.00;99.90;;;;;;5049803;28;20373;-68
2022/08/20 06:05:43;;;;;;;51.00;25.85;;;20.90;99.90;;;;;;5047420;28;20519;-69
2022/08/20 06:08:10;;;;;;;53.33;25.27;;;20.80;99.90;;;;;;5053147;28;20124;-69
2022/08/20 06:10:36;;;;;;;51.40;24.85;;;20.80;99.90;;;;;;5057505;28;20595;-68
2022/08/20 06:13:03;;;;;;;61.45;25.67;;;20.90;99.90;;;;;;5056803;28;20036;-69
2022/08/20 06:15:31;;;;;;;56.95;28.25;;;20.90;99.90;;;;;;5047688;28;20051;-69
2022/08/20 06:17:57;;;;;;;51.53;25.00;;;21.00;99.90;;;;;;5053050;28;20033;-69
2022/08/20 06:20:23;;;;;;;65.70;25.92;;;21.00;99.90;;;;;;5051535;28;20013;-69
2022/08/20 06:22:49;;;;;;;60.13;27.65;;;21.10;99.90;;;;;;5049839;28;20534;-69
2022/08/20 06:25:14;;;;;;;53.55;23.15;;;21.10;99.90;;;;;;5057995;28;20029;-68
2022/08/20 06:27:42;;;;;;;52.97;24.88;;;21.10;99.90;;;;;;5045080;28;20028;-69
2022/08/20 06:30:10;;;;;;;53.28;27.75;;;21.00;99.90;;;;;;5041572;28;20041;-69
2022/08/20 06:32:36;;;;;;;65.38;27.88;;;20.80;99.90;;;;;;5038037;28;20426;-69
2022/08/20 06:35:06;;;;;;;48.90;27.30;;;20.80;99.90;;;;;;5051788;28;20083;-69
2022/08/20 06:37:35;;;;;;;61.45;28.80;;;20.90;99.90;;;;;;5037366;28;20367;-70
2022/08/20 06:40:09;;;;;;;60.40;29.40;;;20.90;99.90;;;;;;5039907;28;20030;-73
2022/08/20 06:42:36;;;;;;;56.40;27.15;;;21.00;99.90;;;;;;5043992;28;20099;-69
2022/08/20 06:45:04;;;;;;;59.22;29.23;;;21.00;99.90;;;;;;5040424;28;20028;-70
2022/08/20 06:47:30;;;;;;;54.85;29.08;;;21.00;99.90;;;;;;5050400;28;20115;-70
2022/08/20 06:49:56;;;;;;;64.05;31.95;;;20.90;99.90;;;;;;5043734;28;20032;-71
2022/08/20 06:52:22;;;;;;;67.43;32.05;;;20.90;99.90;;;;;;5043132;28;20025;-70
2022/08/20 06:54:48;;;;;;;61.03;30.40;;;20.80;99.90;;;;;;5038831;28;20025;-71
2022/08/20 06:57:14;;;;;;;64.55;30.08;;;20.80;99.90;;;;;;5040868;28;20036;-69
2022/08/20 06:59:40;;;;;;;66.05;30.08;;;20.90;99.90;;;;;;5033790;28;20103;-70
2022/08/20 07:02:06;;;;;;;66.10;33.30;;;20.80;99.90;;;;;;5044900;28;20021;-70
2022/08/20 07:04:32;;;;;;;70.43;33.60;;;20.90;99.90;;;;;;5044781;28;20041;-70
2022/08/20 07:06:58;;;;;;;65.03;32.50;;;21.00;99.90;;;;;;5047044;28;20036;-70
2022/08/20 07:09:25;;;;;;;63.58;31.63;;;20.90;99.90;;;;;;5046334;28;20020;-70
2022/08/20 07:11:51;;;;;;;77.95;37.13;;;20.90;99.90;;;;;;5046271;28;20105;-70
2022/08/20 07:14:18;;;;;;;66.70;36.33;;;20.90;99.90;;;;;;5046293;28;20116;-70
2022/08/20 07:16:45;;;;;;;86.25;37.00;;;20.80;99.90;;;;;;5043284;28;20381;-71
2022/08/20 07:19:12;;;;;;;76.50;38.13;;;20.90;99.90;;;;;;5046186;28;20108;-70
2022/08/20 07:21:38;;;;;;;70.45;37.75;;;21.00;99.90;;;;;;5045449;28;20470;-69
2022/08/20 07:24:04;;;;;;;79.47;38.10;;;21.00;99.90;;;;;;5046944;28;20127;-70
2022/08/20 07:26:31;;;;;;;81.78;38.60;;;21.10;99.90;;;;;;5048254;28;20021;-73
2022/08/20 07:28:57;;;;;;;83.82;40.97;;;21.00;99.90;;;;;;5024710;28;20032;-69
2022/08/20 07:34:07;;;;;;;92.50;42.30;;;21.00;99.90;;;;;;5043725;28;20109;-70
2022/08/20 07:36:33;;;;;;;81.97;41.38;;;21.00;99.90;;;;;;5051584;28;20029;-70
2022/08/20 07:39:00;;;;;;;72.32;41.08;;;21.10;99.90;;;;;;5058093;28;20174;-71
2022/08/20 07:41:26;;;;;;;75.28;39.72;;;21.10;99.90;;;;;;5048621;28;20062;-70
2022/08/20 07:43:52;;;;;;;75.00;40.35;;;21.10;99.90;;;;;;5043761;28;20045;-71
2022/08/20 07:46:20;;;;;;;76.30;38.33;;;21.10;99.90;;;;;;5050531;28;20483;-71
2022/08/20 07:48:48;;;;;;;73.97;38.22;;;21.10;99.90;;;;;;5035031;28;20496;-70
2022/08/20 07:51:16;;;;;;;69.60;38.58;;;21.10;99.90;;;;;;5027734;28;20052;-70
2022/08/20 07:53:43;;;;;;;79.32;39.47;;;21.20;99.90;;;;;;5049277;28;20520;-70
2022/08/20 07:56:13;;;;;;;82.38;39.60;;;21.20;99.90;;;;;;5051664;28;20025;-68
2022/08/20 07:58:48;;;;;;;74.57;38.25;;;21.20;99.90;;;;;;5056567;28;20024;-69
2022/08/20 08:01:28;;;;;;;82.85;41.67;;;21.20;99.90;;;;;;5058977;28;20032;-68
2022/08/20 08:03:55;;;;;;;70.72;37.85;;;21.20;99.90;;;;;;5055119;28;20493;-68
2022/08/20 08:06:23;;;;;;;72.03;37.47;;;21.10;99.90;;;;;;5035090;28;20026;-69
2022/08/20 08:08:49;;;;;;;86.30;39.58;;;21.20;99.90;;;;;;5060850;28;20028;-69
2022/08/20 08:11:15;;;;;;;85.13;41.85;;;21.20;99.90;;;;;;5051510;28;20021;-70
2022/08/20 08:13:42;;;;;;;78.13;39.95;;;21.20;99.90;;;;;;5051056;28;20108;-70
2022/08/20 08:16:09;;;;;;;72.57;35.28;;;21.30;99.90;;;;;;5049125;28;20029;-69
2022/08/20 08:18:51;;;;;;;83.75;36.20;;;21.20;99.90;;;;;;5054288;28;20025;-70
2022/08/20 08:21:19;;;;;;;84.20;38.05;;;21.20;99.90;;;;;;5052467;28;20540;-70
2022/08/20 08:23:45;;;;;;;83.72;38.55;;;21.30;99.90;;;;;;5061662;28;20115;-69
2022/08/20 08:26:13;;;;;;;77.85;39.45;;;21.40;99.90;;;;;;5053086;28;20128;-70
2022/08/20 08:28:40;;;;;;;72.60;35.95;;;21.30;99.90;;;;;;5042067;28;20104;-69
2022/08/20 08:31:06;;;;;;;79.38;40.63;;;21.30;99.90;;;;;;5041048;28;20056;-69
2022/08/20 08:33:32;;;;;;;71.80;36.67;;;21.40;99.90;;;;;;5040655;28;20463;-70
2022/08/20 08:36:02;;;;;;;67.45;34.97;;;21.40;99.90;;;;;;5046713;28;20030;-70
2022/08/20 08:38:28;;;;;;;73.50;36.63;;;21.30;99.90;;;;;;5047161;28;20029;-70
2022/08/20 08:40:56;;;;;;;69.72;35.42;;;21.30;99.90;;;;;;5040203;28;20025;-70
2022/08/20 08:43:24;;;;;;;68.28;36.47;;;21.20;99.90;;;;;;5047879;28;20041;-70
2022/08/20 08:45:57;;;;;;;67.45;33.15;;;21.20;99.90;;;;;;5043685;28;20560;-71
2022/08/20 08:48:31;;;;;;;67.72;32.42;;;21.20;99.90;;;;;;5045145;28;20025;-72
2022/08/20 08:50:58;;;;;;;63.42;32.30;;;21.20;99.90;;;;;;5043793;28;20032;-71
2022/08/20 08:53:37;;;;;;;58.00;29.48;;;21.20;99.90;;;;;;5029238;28;20028;-70
2022/08/20 08:56:05;;;;;;;60.47;29.02;;;21.10;99.90;;;;;;5046245;28;20386;-71
2022/08/20 08:58:33;;;;;;;55.65;28.17;;;21.00;99.90;;;;;;5046627;28;20056;-71
2022/08/20 09:01:02;;;;;;;57.22;29.00;;;21.10;99.90;;;;;;5048627;28;20108;-72
2022/08/20 09:03:35;;;;;;;53.35;28.17;;;21.00;99.90;;;;;;5040262;28;20485;-71
2022/08/20 09:06:01;;;;;;;;;;;21.10;99.90;;;;;;5047234;28;20111;-70
2022/08/20 09:08:37;;;;;;;58.05;28.05;;;21.20;99.90;;;;;;5044180;28;19988;-71
2022/08/20 09:11:05;;;;;;;55.70;28.70;;;21.20;99.90;;;;;;5047966;28;20037;-70
2022/08/20 09:13:31;;;;;;;52.30;29.77;;;21.30;99.90;;;;;;5030936;28;20531;-70
2022/08/20 09:15:57;;;;;;;53.67;27.77;;;21.30;99.90;;;;;;5047713;28;20028;-70
2022/08/20 09:18:23;;;;;;;51.50;27.52;;;21.40;99.90;;;;;;5045356;28;20062;-72
2022/08/20 09:20:48;;;;;;;59.95;26.58;;;21.40;99.90;;;;;;5032345;28;20029;-71
2022/08/20 09:23:14;;;;;;;56.03;27.38;;;21.50;99.90;;;;;;5052081;28;20537;-72
2022/08/20 09:25:39;;;;;;;49.45;26.83;;;21.40;99.90;;;;;;5049028;28;20024;-71
2022/08/20 09:28:05;;;;;;;53.50;27.30;;;21.20;99.90;;;;;;5050075;28;20461;-71
2022/08/20 09:30:31;;;;;;;53.45;29.08;;;21.20;99.90;;;;;;5046171;28;20033;-71
2022/08/20 09:33:00;;;;;;;50.45;27.77;;;21.20;99.90;;;;;;5044193;28;20037;-71
2022/08/20 09:35:27;;;;;;;47.22;27.13;;;21.20;99.90;;;;;;5050039;28;20572;-70
2022/08/20 09:37:52;;;;;;;55.33;27.60;;;21.20;99.90;;;;;;5052062;28;20051;-71
2022/08/20 09:40:19;;;;;;;51.83;27.75;;;21.20;99.90;;;;;;5044290;28;20366;-71
2022/08/20 09:42:44;;;;;;;54.05;27.65;;;21.40;99.90;;;;;;5044918;28;20126;-71
2022/08/20 09:45:11;;;;;;;49.35;26.70;;;21.50;99.90;;;;;;5046334;28;20469;-70
2022/08/20 09:47:38;;;;;;;52.42;27.38;;;21.50;99.90;;;;;;5041598;28;20021;-72
2022/08/20 09:50:05;;;;;;;46.13;25.92;;;21.70;99.90;;;;;;5046332;28;20182;-71
2022/08/20 09:52:38;;;;;;;40.75;24.88;;;21.80;99.90;;;;;;5029988;28;20033;-71
2022/08/20 09:55:27;;;;;;;37.60;22.52;;;22.10;99.90;;;;;;5043286;28;20025;-70
2022/08/20 09:57:53;;;;;;;38.05;23.30;;;22.30;99.90;;;;;;5049810;28;20041;-71
2022/08/20 10:00:20;;;;;;;36.47;23.42;;;22.40;99.90;;;;;;5046939;28;20028;-70
2022/08/20 10:02:46;;;;;;;35.03;20.85;;;22.60;99.90;;;;;;5043448;28;20482;-71
2022/08/20 10:05:12;;;;;;;34.67;19.65;;;22.90;99.90;;;;;;5041110;28;20170;-71
2022/08/20 10:07:39;;;;;;;33.05;18.75;;;23.00;99.90;;;;;;5040266;28;20083;-71
2022/08/20 10:10:08;;;;;;;36.78;19.38;;;23.20;99.90;;;;;;5047897;28;20104;-70
2022/08/20 10:12:34;;;;;;;32.40;18.63;;;23.30;99.90;;;;;;5043234;28;20021;-71
2022/08/20 10:15:00;;;;;;;23.23;17.38;;;23.20;99.90;;;;;;5048590;28;20029;-71
2022/08/20 10:17:25;;;;;;;28.42;17.10;;;23.30;99.90;;;;;;5047883;28;20063;-71
2022/08/20 10:19:51;;;;;;;28.00;18.00;;;23.30;99.90;;;;;;5041812;28;20029;-72
2022/08/20 10:22:17;;;;;;;31.17;17.83;;;23.20;99.90;;;;;;5027458;28;20071;-72
2022/08/20 10:24:42;;;;;;;28.10;18.05;;;23.40;99.90;;;;;;5037370;28;20022;-71
2022/08/20 10:27:08;;;;;;;30.60;18.60;;;23.50;99.90;;;;;;5037812;28;20512;-71
2022/08/20 10:29:33;;;;;;;32.03;20.25;;;23.50;99.90;;;;;;5038987;28;20032;-72
2022/08/20 10:32:10;;;;;;;31.52;19.05;;;23.60;99.90;;;;;;5044593;28;20029;-71
2022/08/20 10:34:37;;;;;;;30.48;19.70;;;23.70;99.90;;;;;;5046278;28;20338;-71
2022/08/20 10:37:03;;;;;;;33.55;19.45;;;24.00;99.90;;;;;;5048159;28;20464;-71
2022/08/20 10:39:29;;;;;;;31.35;19.73;;;23.90;99.90;;;;;;5038009;28;20029;-70
2022/08/20 10:41:54;;;;;;;33.35;20.00;;;24.20;99.90;;;;;;5045771;28;20397;-70
2022/08/20 10:44:20;;;;;;;29.73;18.63;;;24.30;99.90;;;;;;5044912;28;20061;-71
2022/08/20 10:46:45;;;;;;;30.30;18.88;;;24.40;99.90;;;;;;5042068;28;20064;-71
2022/08/20 10:49:11;;;;;;;29.55;18.58;;;24.40;99.90;;;;;;5036227;28;20492;-71
2022/08/20 10:51:37;;;;;;;30.15;19.05;;;24.60;99.90;;;;;;5043925;28;20534;-71
2022/08/20 10:54:02;;;;;;;26.77;16.55;;;24.70;99.90;;;;;;5032394;28;20112;-72
2022/08/20 10:56:28;;;;;;;31.15;16.63;;;24.70;99.90;;;;;;5045372;28;20036;-73
2022/08/20 10:58:54;;;;;;;33.75;17.25;;;24.90;99.90;;;;;;5021707;28;20017;-72
2022/08/20 11:01:20;;;;;;;28.45;16.60;;;25.10;99.90;;;;;;5047436;28;20055;-72
2022/08/20 11:03:45;;;;;;;28.50;17.05;;;25.00;99.90;;;;;;5038721;28;20056;-73
2022/08/20 11:06:12;;;;;;;28.70;15.93;;;24.80;99.90;;;;;;5044516;28;20036;-71
2022/08/20 11:08:38;;;;;;;27.45;16.27;;;24.70;99.90;;;;;;5043713;28;20037;-73
2022/08/20 11:11:04;;;;;;;25.67;15.50;;;24.80;99.90;;;;;;5051985;28;20025;-71
2022/08/20 11:13:31;;;;;;;25.42;15.23;;;24.90;99.90;;;;;;5042386;28;20025;-71
2022/08/20 11:15:56;;;;;;;24.02;14.70;;;25.10;99.90;;;;;;5042098;28;20044;-74
2022/08/20 11:18:22;;;;;;;23.15;13.88;;;25.10;99.90;;;;;;5038712;28;20048;-71
2022/08/20 11:20:48;;;;;;;22.58;15.15;;;25.10;99.90;;;;;;5046585;28;20466;-71
2022/08/20 11:23:14;;;;;;;24.20;14.50;;;25.10;99.90;;;;;;5045871;28;20040;-72
2022/08/20 11:25:39;;;;;;;20.75;12.73;;;25.20;99.90;;;;;;5041745;28;20127;-71
2022/08/20 11:28:06;;;;;;;21.77;11.82;;;25.30;99.90;;;;;;5041797;28;20373;-72
2022/08/20 11:30:34;;;;;;;21.95;11.52;;;25.50;99.90;;;;;;5048636;28;20033;-71
2022/08/20 11:33:00;;;;;;;19.08;9.65;;;25.70;99.90;;;;;;5038976;28;20492;-72
2022/08/20 11:35:29;;;;;;;16.58;9.40;;;25.70;99.90;;;;;;5045888;28;20063;-72
2022/08/20 11:37:57;;;;;;;19.67;10.27;;;25.60;99.90;;;;;;5022228;28;20362;-71
2022/08/20 11:40:23;;;;;;;20.45;9.23;;;25.70;99.90;;;;;;5045261;28;20013;-71
2022/08/20 11:42:49;;;;;;;24.48;9.35;;;25.80;99.90;;;;;;5040020;28;20142;-71
2022/08/20 11:45:15;;;;;;;18.95;9.15;;;26.00;99.90;;;;;;5039947;28;20478;-71
2022/08/20 11:47:41;;;;;;;19.80;8.18;;;26.00;99.90;;;;;;5045823;28;20113;-70
2022/08/20 11:50:12;;;;;;;16.15;7.13;;;26.20;99.90;;;;;;5046546;28;20017;-70
2022/08/20 11:52:38;;;;;;;19.27;7.68;;;26.10;99.90;;;;;;5038640;28;20033;-70
2022/08/20 11:55:05;;;;;;;15.63;6.72;;;25.90;99.90;;;;;;5042743;28;20520;-70
2022/08/20 11:57:34;;;;;;;18.67;7.45;;;25.90;99.90;;;;;;5047005;28;20061;-70
2022/08/20 12:00:01;;;;;;;16.15;7.38;;;26.10;99.90;;;;;;5046381;28;20028;-70
2022/08/20 12:02:27;;;;;;;18.48;8.05;;;26.30;99.90;;;;;;5047120;28;20385;-70
2022/08/20 12:04:53;;;;;;;17.30;7.65;;;26.50;99.90;;;;;;5046931;28;20029;-71
2022/08/20 12:07:21;;;;;;;13.50;8.05;;;26.70;99.90;;;;;;5049214;28;20507;-70
2022/08/20 12:09:48;;;;;;;14.65;7.18;;;26.80;99.90;;;;;;5033407;28;20040;-71
2022/08/20 12:12:14;;;;;;;12.35;6.80;;;26.80;99.90;;;;;;5047004;28;20359;-70
2022/08/20 12:14:41;;;;;;;15.95;7.63;;;26.80;99.90;;;;;;5042127;28;20022;-70
2022/08/20 12:17:11;;;;;;;11.45;7.10;;;26.80;99.90;;;;;;5041866;28;20036;-70
2022/08/20 12:19:41;;;;;;;15.48;6.72;;;26.90;99.90;;;;;;5047278;28;20512;-70
2022/08/20 12:22:08;;;;;;;16.90;7.47;;;26.90;99.90;;;;;;5051399;28;20485;-70
2022/08/20 12:24:35;;;;;;;21.52;8.20;;;26.70;99.90;;;;;;5044548;28;20036;-70
2022/08/20 12:27:23;;;;;;;15.48;7.50;;;26.60;99.90;;;;;;5046310;28;20029;-71
2022/08/20 12:29:51;;;;;;;15.82;7.03;;;26.60;99.90;;;;;;5048330;28;20119;-71
2022/08/20 12:32:18;;;;;;;14.70;7.15;;;26.60;99.90;;;;;;5044036;28;20022;-70
2022/08/20 12:34:43;;;;;;;13.20;7.53;;;26.70;99.90;;;;;;5046429;28;20452;-70
2022/08/20 12:37:15;;;;;;;12.13;7.18;;;26.70;99.90;;;;;;5049657;28;20111;-71